createdAt,value
2023-02-03T00:01:35.589Z,6.10
2023-02-03T00:03:38.073Z,8.32
2023-02-03T00:05:41.262Z,6.15
2023-02-03T00:07:44.481Z,7.93
2023-02-03T00:09:46.930Z,8.88
2023-02-03T00:11:49.329Z,7.95
2023-02-03T00:13:51.799Z,7.45
2023-02-03T00:15:54.301Z,6.18
2023-02-03T00:17:56.726Z,8.50
2023-02-03T00:19:59.192Z,8.00
2023-02-03T00:22:01.685Z,9.15
2023-02-03T00:24:04.197Z,5.47
2023-02-03T00:26:11.369Z,7.72
2023-02-03T00:28:13.892Z,5.78
2023-02-03T00:30:16.520Z,8.60
2023-02-03T00:32:19.037Z,6.75
2023-02-03T00:34:21.808Z,7.15
2023-02-03T00:36:25.363Z,7.43
2023-02-03T00:38:30.556Z,6.38
2023-02-03T00:40:33.045Z,5.40
2023-02-03T00:42:36.157Z,6.50
2023-02-03T00:44:38.519Z,6.40
2023-02-03T00:46:41.104Z,4.90
2023-02-03T00:48:43.697Z,5.55
2023-02-03T00:50:47.699Z,4.97
2023-02-03T00:52:50.096Z,4.18
2023-02-03T00:54:52.507Z,5.18
2023-02-03T00:56:54.925Z,4.68
2023-02-03T00:58:57.387Z,3.83
2023-02-03T01:00:59.890Z,6.65
2023-02-03T01:03:02.389Z,5.18
2023-02-03T01:05:05.056Z,5.35
2023-02-03T01:07:07.506Z,4.35
2023-02-03T01:09:09.930Z,4.88
2023-02-03T01:11:32.363Z,5.78
2023-02-03T01:13:34.861Z,5.70
2023-02-03T01:15:37.369Z,5.25
2023-02-03T01:17:40.146Z,4.75
2023-02-03T01:19:42.548Z,6.78
2023-02-03T01:21:44.989Z,5.55
2023-02-03T01:23:48.069Z,6.13
2023-02-03T01:25:50.725Z,5.75
2023-02-03T01:27:53.158Z,6.30
2023-02-03T01:29:55.668Z,5.32
2023-02-03T01:31:58.184Z,5.78
2023-02-03T01:34:01.168Z,5.10
2023-02-03T01:36:04.095Z,5.03
2023-02-03T01:38:06.502Z,6.75
2023-02-03T01:40:09.621Z,4.60
2023-02-03T01:42:16.125Z,4.50
2023-02-03T01:44:43.668Z,5.93
2023-02-03T01:46:48.951Z,5.22
2023-02-03T01:48:52.699Z,5.35
2023-02-03T01:50:55.674Z,5.60
2023-02-03T01:53:04.236Z,4.32
2023-02-03T01:55:08.788Z,5.50
2023-02-03T01:57:22.246Z,4.90
2023-02-03T01:59:25.348Z,7.40
2023-02-03T02:01:29.529Z,3.58
2023-02-03T02:03:49.013Z,4.40
2023-02-03T02:05:55.081Z,3.80
2023-02-03T02:07:59.604Z,4.57
2023-02-03T02:10:02.497Z,6.07
2023-02-03T02:12:05.039Z,3.35
2023-02-03T02:14:07.865Z,5.05
2023-02-03T02:16:32.019Z,4.50
2023-02-03T02:18:37.310Z,5.75
2023-02-03T02:20:59.998Z,4.50
2023-02-03T02:23:20.066Z,4.38
2023-02-03T02:25:44.130Z,3.22
2023-02-03T02:28:20.769Z,3.85
2023-02-03T02:30:26.195Z,3.53
2023-02-03T02:33:04.220Z,3.45
2023-02-03T02:35:20.873Z,4.20
2023-02-03T02:37:41.646Z,4.10
2023-02-03T02:39:51.523Z,4.30
2023-02-03T02:41:58.577Z,3.47
2023-02-03T02:44:19.350Z,3.33
2023-02-03T02:46:48.916Z,4.40
2023-02-03T02:49:00.446Z,4.75
2023-02-03T02:51:05.544Z,4.57
2023-02-03T02:53:09.158Z,3.92
2023-02-03T02:55:15.636Z,3.08
2023-02-03T02:57:20.657Z,4.30
2023-02-03T02:59:23.087Z,3.67
2023-02-03T03:01:25.643Z,3.80
2023-02-03T03:03:28.137Z,3.65
2023-02-03T03:05:30.568Z,5.38
2023-02-03T03:07:47.134Z,3.42
2023-02-03T03:09:59.914Z,3.42
2023-02-03T03:12:15.353Z,2.88
2023-02-03T03:14:20.124Z,3.15
2023-02-03T03:16:27.396Z,3.88
2023-02-03T03:18:33.786Z,3.47
2023-02-03T03:20:37.651Z,3.58
2023-02-03T03:22:45.222Z,2.95
2023-02-03T03:24:54.016Z,2.78
2023-02-03T03:27:24.535Z,5.15
2023-02-03T03:29:47.861Z,3.28
2023-02-03T03:31:50.351Z,2.83
2023-02-03T03:33:52.851Z,3.03
2023-02-03T03:35:57.505Z,4.28
2023-02-03T03:38:10.479Z,3.65
2023-02-03T03:40:29.945Z,5.20
2023-02-03T03:42:51.761Z,4.75
2023-02-03T03:45:06.468Z,2.90
2023-02-03T03:47:18.020Z,3.67
2023-02-03T03:49:21.426Z,3.97
2023-02-03T03:51:44.950Z,2.90
2023-02-03T03:53:49.103Z,3.58
2023-02-03T03:55:52.956Z,3.70
2023-02-03T03:58:08.568Z,3.08
2023-02-03T04:00:13.595Z,3.67
2023-02-03T04:02:17.491Z,3.65
2023-02-03T04:04:20.729Z,5.38
2023-02-03T04:06:23.555Z,2.90
2023-02-03T04:08:25.974Z,4.20
2023-02-03T04:10:32.805Z,5.30
2023-02-03T04:12:35.166Z,4.22
2023-02-03T04:14:39.050Z,3.70
2023-02-03T04:16:41.638Z,4.50
2023-02-03T04:18:44.067Z,3.28
2023-02-03T04:20:46.433Z,4.70
2023-02-03T04:22:48.941Z,3.45
2023-02-03T04:24:51.352Z,3.33
2023-02-03T04:26:53.841Z,4.95
2023-02-03T04:28:56.240Z,3.28
2023-02-03T04:31:01.548Z,3.67
2023-02-03T04:33:04.015Z,3.78
2023-02-03T04:35:07.419Z,3.63
2023-02-03T04:37:09.820Z,3.60
2023-02-03T04:39:12.305Z,3.75
2023-02-03T04:41:14.662Z,5.28
2023-02-03T04:43:17.266Z,4.07
2023-02-03T04:45:19.651Z,3.05
2023-02-03T04:47:22.049Z,2.63
2023-02-03T04:49:24.544Z,2.85
2023-02-03T04:51:26.950Z,2.72
2023-02-03T04:53:29.672Z,3.95
2023-02-03T04:55:32.119Z,4.93
2023-02-03T04:57:34.709Z,5.50
2023-02-03T04:59:37.158Z,7.07
2023-02-03T05:01:39.555Z,4.93
2023-02-03T05:03:42.089Z,5.35
2023-02-03T05:05:44.691Z,5.07
2023-02-03T05:07:47.295Z,3.88
2023-02-03T05:09:49.769Z,3.10
2023-02-03T05:11:52.628Z,4.07
2023-02-03T05:13:55.593Z,5.43
2023-02-03T05:15:58.100Z,3.75
2023-02-03T05:18:00.579Z,3.35
2023-02-03T05:20:03.075Z,4.40
2023-02-03T05:22:05.513Z,6.22
2023-02-03T05:24:08.239Z,4.70
2023-02-03T05:26:10.777Z,3.67
2023-02-03T05:28:13.227Z,6.72
2023-02-03T05:30:15.648Z,3.80
2023-02-03T05:32:18.165Z,4.95
2023-02-03T05:34:20.515Z,4.07
2023-02-03T05:36:22.929Z,5.97
2023-02-03T05:38:25.670Z,8.65
2023-02-03T05:40:46.807Z,8.30
2023-02-03T05:42:49.822Z,6.43
2023-02-03T05:44:52.284Z,6.55
2023-02-03T05:46:57.516Z,7.15
2023-02-03T05:48:59.903Z,5.68
2023-02-03T05:51:02.474Z,3.78
2023-02-03T05:53:06.296Z,4.88
2023-02-03T05:55:08.808Z,5.93
2023-02-03T05:57:11.249Z,5.03
2023-02-03T05:59:13.665Z,7.97
2023-02-03T06:01:16.166Z,7.85
2023-02-03T06:03:18.659Z,6.75
2023-02-03T06:05:21.875Z,7.75
2023-02-03T06:07:24.299Z,6.50
2023-02-03T06:09:26.749Z,8.40
2023-02-03T06:11:29.721Z,6.78
2023-02-03T06:13:32.149Z,7.95
2023-02-03T06:15:34.674Z,5.78
2023-02-03T06:17:37.219Z,6.97
2023-02-03T06:19:39.581Z,5.18
2023-02-03T06:21:42.032Z,5.30
2023-02-03T06:23:44.388Z,5.93
2023-02-03T06:25:49.336Z,8.98
2023-02-03T06:27:51.943Z,6.43
2023-02-03T06:29:54.542Z,7.40
2023-02-03T06:31:57.619Z,7.85
2023-02-03T06:34:02.599Z,10.55
2023-02-03T06:36:05.427Z,6.88
2023-02-03T06:38:07.935Z,7.05
2023-02-03T06:40:11.910Z,7.32
2023-02-03T06:42:15.295Z,6.50
2023-02-03T06:44:18.089Z,5.28
2023-02-03T06:46:20.643Z,5.63
2023-02-03T06:48:23.918Z,6.03
2023-02-03T06:50:26.677Z,6.20
2023-02-03T06:52:29.309Z,7.93
2023-02-03T06:54:31.703Z,6.10
2023-02-03T06:56:34.116Z,10.30
2023-02-03T06:58:36.567Z,13.07
2023-02-03T07:00:38.940Z,9.82
2023-02-03T07:02:41.673Z,16.38
2023-02-03T07:04:45.290Z,9.00
2023-02-03T07:06:47.703Z,6.57
2023-02-03T07:08:50.133Z,6.57
2023-02-03T07:10:56.327Z,13.10
2023-02-03T07:13:06.470Z,6.88
2023-02-03T07:15:09.539Z,6.55
2023-02-03T07:17:12.062Z,10.32
2023-02-03T07:19:14.441Z,6.00
2023-02-03T07:21:17.368Z,7.82
2023-02-03T07:23:20.544Z,7.28
2023-02-03T07:25:23.821Z,6.95
2023-02-03T07:27:28.030Z,7.67
2023-02-03T07:29:30.758Z,7.82
2023-02-03T07:31:33.272Z,12.32
2023-02-03T07:33:35.936Z,9.00
2023-02-03T07:35:38.412Z,6.45
2023-02-03T07:37:41.326Z,9.97
2023-02-03T07:39:44.197Z,10.20
2023-02-03T07:41:46.672Z,8.02
2023-02-03T07:43:49.183Z,7.97
2023-02-03T07:45:51.598Z,11.32
2023-02-03T07:47:54.067Z,10.43
2023-02-03T07:49:56.440Z,9.90
2023-02-03T07:51:58.870Z,14.27
2023-02-03T07:54:01.408Z,11.15
2023-02-03T07:56:05.197Z,11.45
2023-02-03T07:58:07.955Z,13.95
2023-02-03T08:00:14.175Z,9.82
2023-02-03T08:02:16.743Z,9.30
2023-02-03T08:04:19.454Z,10.82
2023-02-03T08:06:22.082Z,12.48
2023-02-03T08:08:24.520Z,9.93
2023-02-03T08:10:27.316Z,9.57
2023-02-03T08:12:29.935Z,9.68
2023-02-03T08:14:32.428Z,9.60
2023-02-03T08:16:35.028Z,7.03
2023-02-03T08:18:37.567Z,5.57
2023-02-03T08:20:40.050Z,12.27
2023-02-03T08:22:42.741Z,8.18
2023-02-03T08:24:46.219Z,10.70
2023-02-03T08:26:48.671Z,8.25
2023-02-03T08:28:51.193Z,8.80
2023-02-03T08:30:53.623Z,7.35
2023-02-03T08:32:56.081Z,7.18
2023-02-03T08:34:58.486Z,90.22
2023-02-03T08:37:01.077Z,8.00
2023-02-03T08:39:03.626Z,11.27
2023-02-03T08:41:11.142Z,26.20
2023-02-03T08:43:13.595Z,18.60
2023-02-03T08:45:16.014Z,8.98
2023-02-03T08:47:18.844Z,10.50
2023-02-03T08:49:21.737Z,5.87
2023-02-03T08:51:24.784Z,8.00
2023-02-03T08:53:27.455Z,14.40
2023-02-03T08:55:29.938Z,9.15
2023-02-03T08:57:36.497Z,11.07
2023-02-03T08:59:40.461Z,9.80
2023-02-03T09:01:48.574Z,13.52
2023-02-03T09:03:51.093Z,8.23
2023-02-03T09:05:53.638Z,12.25
2023-02-03T09:07:56.102Z,9.88
2023-02-03T09:09:58.519Z,8.57
2023-02-03T09:12:02.554Z,35.67
2023-02-03T09:14:07.328Z,16.67
2023-02-03T09:16:10.257Z,9.45
2023-02-03T09:18:12.757Z,8.73
2023-02-03T09:20:15.320Z,9.17
2023-02-03T09:22:17.787Z,6.35
2023-02-03T09:24:20.487Z,9.43
2023-02-03T09:26:22.997Z,9.43
2023-02-03T09:28:25.810Z,12.55
2023-02-03T09:30:28.587Z,9.13
2023-02-03T09:32:31.218Z,7.40
2023-02-03T09:34:33.655Z,4.85
2023-02-03T09:36:37.655Z,6.93
2023-02-03T09:38:40.369Z,22.23
2023-02-03T09:40:42.913Z,7.50
2023-02-03T09:43:03.380Z,8.68
2023-02-03T09:45:17.474Z,8.75
2023-02-03T09:47:23.611Z,7.10
2023-02-03T09:49:37.876Z,10.70
2023-02-03T09:51:54.166Z,10.43
2023-02-03T09:54:06.353Z,13.60
2023-02-03T09:56:25.489Z,16.55
2023-02-03T09:58:32.926Z,17.25
2023-02-03T10:01:00.220Z,15.77
2023-02-03T10:03:27.792Z,14.93
2023-02-03T10:06:14.841Z,11.52
2023-02-03T10:08:32.843Z,15.93
2023-02-03T10:10:41.705Z,15.70
2023-02-03T10:13:03.048Z,21.50
2023-02-03T10:15:27.168Z,16.53
2023-02-03T10:17:56.423Z,14.93
2023-02-03T10:20:17.699Z,14.25
2023-02-03T10:22:23.483Z,14.38
2023-02-03T10:24:36.154Z,12.95
2023-02-03T10:26:39.389Z,7.47
2023-02-03T10:28:56.500Z,7.43
2023-02-03T10:31:01.648Z,11.23
2023-02-03T10:33:17.669Z,6.70
2023-02-03T10:35:22.628Z,10.95
2023-02-03T10:37:37.712Z,9.50
2023-02-03T10:39:46.563Z,12.68
2023-02-03T10:41:49.090Z,13.80
2023-02-03T10:43:52.962Z,18.80
2023-02-03T10:45:55.515Z,16.48
2023-02-03T10:47:58.167Z,15.40
2023-02-03T10:50:07.800Z,9.25
2023-02-03T10:52:26.914Z,9.25
2023-02-03T10:54:32.134Z,11.88
2023-02-03T10:56:38.900Z,10.77
2023-02-03T10:58:48.901Z,10.03
2023-02-03T11:00:57.148Z,14.43
2023-02-03T11:03:10.947Z,19.83
2023-02-03T11:05:25.069Z,13.98
2023-02-03T11:07:28.135Z,11.25
2023-02-03T11:09:39.574Z,11.83
2023-02-03T11:11:42.142Z,9.75
2023-02-03T11:13:44.622Z,6.13
2023-02-03T11:16:11.651Z,6.30
2023-02-03T11:18:32.510Z,9.52
2023-02-03T11:20:37.289Z,10.33
2023-02-03T11:22:41.740Z,9.70
2023-02-03T11:24:45.474Z,12.98
2023-02-03T11:26:52.096Z,5.80
2023-02-03T11:28:56.762Z,9.23
2023-02-03T11:30:59.380Z,12.87
2023-02-03T11:33:02.604Z,6.72
2023-02-03T11:35:15.377Z,8.98
2023-02-03T11:37:35.824Z,13.55
2023-02-03T11:39:39.199Z,8.68
2023-02-03T11:41:41.800Z,17.57
2023-02-03T11:43:44.468Z,9.07
2023-02-03T11:45:49.306Z,12.18
2023-02-03T11:48:05.376Z,7.00
2023-02-03T11:50:38.111Z,7.65
2023-02-03T11:52:58.334Z,11.57
2023-02-03T11:55:06.898Z,6.70
2023-02-03T11:57:12.357Z,9.30
2023-02-03T11:59:14.800Z,6.70
2023-02-03T12:01:20.243Z,17.73
2023-02-03T12:03:43.518Z,10.57
2023-02-03T12:05:58.033Z,10.10
2023-02-03T12:08:28.233Z,5.97
2023-02-03T12:10:42.956Z,12.10
2023-02-03T12:12:57.505Z,17.73
2023-02-03T12:15:19.042Z,8.70
2023-02-03T12:17:39.300Z,7.18
2023-02-03T12:20:00.419Z,8.98
2023-02-03T12:22:10.053Z,16.05
2023-02-03T12:24:31.279Z,15.55
2023-02-03T12:27:10.804Z,18.37
2023-02-03T12:29:46.701Z,8.40
2023-02-03T12:32:04.933Z,15.50
2023-02-03T12:34:12.977Z,13.05
2023-02-03T12:36:21.188Z,7.43
2023-02-03T12:38:29.442Z,9.97
2023-02-03T12:40:43.288Z,8.05
2023-02-03T12:43:04.688Z,7.90
2023-02-03T12:45:13.027Z,8.98
2023-02-03T12:47:22.103Z,11.65
2023-02-03T12:49:34.389Z,11.27
2023-02-03T12:51:42.328Z,10.68
2023-02-03T12:53:51.607Z,7.28
2023-02-03T12:56:10.978Z,7.78
2023-02-03T12:58:22.313Z,11.02
2023-02-03T13:00:27.760Z,9.60
2023-02-03T13:02:36.162Z,9.65
2023-02-03T13:04:52.113Z,9.68
2023-02-03T13:07:15.721Z,8.60
2023-02-03T13:10:05.751Z,12.07
2023-02-03T13:12:22.582Z,12.23
2023-02-03T13:14:32.871Z,10.75
2023-02-03T13:16:39.781Z,13.60
2023-02-03T13:18:48.489Z,12.50
2023-02-03T13:20:51.076Z,16.92
2023-02-03T13:22:54.058Z,21.77
2023-02-03T13:25:10.013Z,13.27
2023-02-03T13:27:41.815Z,13.05
2023-02-03T13:29:59.575Z,17.85
2023-02-03T13:32:31.988Z,17.60
2023-02-03T13:34:40.662Z,14.00
2023-02-03T13:37:10.505Z,20.55
2023-02-03T13:39:40.822Z,47.45
2023-02-03T13:41:50.333Z,24.60
2023-02-03T13:43:53.609Z,57.42
2023-02-03T13:45:56.511Z,42.87
2023-02-03T13:48:13.343Z,33.00
2023-02-03T13:50:25.286Z,80.40
2023-02-03T13:52:45.834Z,23.70
2023-02-03T13:54:48.250Z,8.10
2023-02-03T13:57:00.070Z,31.53
2023-02-03T13:59:15.959Z,14.48
2023-02-03T14:01:37.095Z,39.03
2023-02-03T14:03:39.634Z,33.58
2023-02-03T14:05:52.166Z,17.85
2023-02-03T14:07:54.635Z,52.43
2023-02-03T14:10:17.716Z,28.00
2023-02-03T14:12:32.173Z,12.55
2023-02-03T14:14:35.769Z,21.10
2023-02-03T14:16:47.726Z,18.08
2023-02-03T14:18:50.278Z,17.40
2023-02-03T14:20:56.261Z,30.83
2023-02-03T14:23:07.623Z,24.73
2023-02-03T14:25:10.127Z,25.05
2023-02-03T14:27:19.576Z,16.17
2023-02-03T14:29:30.329Z,24.37
2023-02-03T14:31:33.165Z,15.02
2023-02-03T14:33:58.189Z,19.42
2023-02-03T14:36:00.659Z,29.15
2023-02-03T14:38:08.917Z,50.03
2023-02-03T14:40:30.411Z,28.90
2023-02-03T14:42:53.889Z,26.00
2023-02-03T14:45:20.607Z,17.50
2023-02-03T14:47:35.198Z,18.10
2023-02-03T14:49:50.416Z,12.77
2023-02-03T14:52:14.687Z,16.90
2023-02-03T14:54:53.125Z,12.75
2023-02-03T14:57:20.211Z,10.48
2023-02-03T14:59:26.483Z,17.85
2023-02-03T15:01:38.015Z,13.10
2023-02-03T15:03:42.373Z,12.23
2023-02-03T15:05:49.022Z,10.23
2023-02-03T15:07:52.479Z,8.05
2023-02-03T15:09:56.554Z,11.00
2023-02-03T15:11:59.049Z,14.43
2023-02-03T15:14:31.200Z,12.23
2023-02-03T15:16:33.760Z,23.20
2023-02-03T15:18:38.997Z,15.23
2023-02-03T15:20:45.682Z,17.92
2023-02-03T15:22:48.095Z,28.38
2023-02-03T15:24:52.899Z,24.57
2023-02-03T15:26:56.792Z,23.17
2023-02-03T15:29:01.168Z,21.75
2023-02-03T15:31:06.598Z,32.50
2023-02-03T15:33:14.314Z,30.20
2023-02-03T15:35:20.514Z,31.63
2023-02-03T15:37:30.534Z,25.85
2023-02-03T15:40:00.949Z,35.25
2023-02-03T15:42:04.255Z,43.35
2023-02-03T15:44:24.291Z,58.67
2023-02-03T15:46:30.321Z,48.70
2023-02-03T15:48:52.099Z,55.90
2023-02-03T15:51:06.438Z,57.55
2023-02-03T15:53:41.089Z,62.53
2023-02-03T15:55:51.237Z,90.25
2023-02-03T15:57:53.973Z,69.00
2023-02-03T16:00:17.142Z,100.05
2023-02-03T16:02:31.214Z,55.85
2023-02-03T16:04:33.765Z,61.03
2023-02-03T16:06:40.429Z,60.35
2023-02-03T16:08:51.586Z,58.60
2023-02-03T16:10:54.033Z,56.80
2023-02-03T16:13:17.568Z,58.45
2023-02-03T16:15:24.977Z,59.00
2023-02-03T16:17:27.482Z,57.55
2023-02-03T16:19:32.556Z,67.40
2023-02-03T16:21:57.554Z,65.07
2023-02-03T16:24:00.701Z,62.65
2023-02-03T16:26:20.851Z,54.95
2023-02-03T16:28:42.132Z,67.18
2023-02-03T16:31:32.653Z,64.33
2023-02-03T16:33:54.480Z,65.80
2023-02-03T16:36:17.681Z,66.70
2023-02-03T16:38:41.024Z,54.75
2023-02-03T16:41:01.792Z,55.78
2023-02-03T16:43:23.811Z,61.33
2023-02-03T16:45:44.895Z,63.38
2023-02-03T16:48:06.279Z,50.92
2023-02-03T16:50:38.590Z,52.65
2023-02-03T16:52:41.717Z,52.60
2023-02-03T16:54:44.126Z,47.37
2023-02-03T16:56:47.489Z,33.15
2023-02-03T16:58:49.922Z,31.42
2023-02-03T17:00:53.655Z,28.38
2023-02-03T17:02:58.537Z,22.10
2023-02-03T17:05:02.517Z,22.53
2023-02-03T17:07:05.389Z,22.00
2023-02-03T17:09:08.579Z,24.50
2023-02-03T17:11:19.811Z,25.42
2023-02-03T17:13:23.290Z,21.33
2023-02-03T17:15:26.229Z,18.25
2023-02-03T17:17:29.059Z,17.27
2023-02-03T17:19:31.494Z,15.77
2023-02-03T17:21:33.925Z,17.35
2023-02-03T17:23:36.539Z,18.10
2023-02-03T17:25:39.552Z,27.85
2023-02-03T17:27:44.562Z,19.52
2023-02-03T17:29:47.045Z,15.23
2023-02-03T17:31:49.508Z,15.25
2023-02-03T17:33:52.655Z,22.30
2023-02-03T17:36:10.891Z,19.17
2023-02-03T17:38:15.056Z,11.05
2023-02-03T17:54:17.507Z,60.85
2023-02-03T17:56:24.762Z,31.25
2023-02-03T17:58:27.153Z,24.57
2023-02-03T18:00:29.860Z,47.42
2023-02-03T18:02:32.520Z,23.20
2023-02-03T18:04:35.198Z,25.10
2023-02-03T18:06:37.951Z,19.15
2023-02-03T18:08:40.913Z,21.67
2023-02-03T18:10:43.376Z,27.33
2023-02-03T18:12:45.789Z,29.98
2023-02-03T18:14:51.253Z,31.90
2023-02-03T18:16:53.723Z,28.38
2023-02-03T18:18:56.680Z,30.90
2023-02-03T18:20:59.116Z,34.40
2023-02-03T18:23:01.659Z,29.73
2023-02-03T18:25:04.280Z,22.73
2023-02-03T18:27:06.739Z,25.77
2023-02-03T18:29:12.721Z,24.10
2023-02-03T18:31:17.660Z,24.25
2023-02-03T18:33:20.202Z,22.88
2023-02-03T18:35:23.031Z,23.35
2023-02-03T18:37:25.491Z,24.00
2023-02-03T18:39:28.020Z,28.20
2023-02-03T18:41:30.502Z,23.00
2023-02-03T18:43:33.216Z,21.35
2023-02-03T18:45:38.538Z,25.85
2023-02-03T18:47:41.037Z,25.08
2023-02-03T18:49:43.608Z,33.43
2023-02-03T18:51:46.112Z,31.83
2023-02-03T18:53:49.673Z,17.70
2023-02-03T18:55:52.116Z,23.98
2023-02-03T18:57:55.809Z,22.70
2023-02-03T18:59:58.372Z,23.70
2023-02-03T19:02:01.297Z,25.77
2023-02-03T19:04:04.414Z,27.42
2023-02-03T19:06:10.855Z,28.67
2023-02-03T19:08:14.064Z,28.20
2023-02-03T19:10:17.325Z,37.60
2023-02-03T19:12:19.752Z,55.35
2023-02-03T19:14:23.398Z,58.67
2023-02-03T19:16:25.920Z,46.75
2023-02-03T19:18:30.637Z,36.22
2023-02-03T19:20:33.456Z,34.30
2023-02-03T19:22:36.014Z,28.58
2023-02-03T19:24:38.440Z,23.98
2023-02-03T19:26:40.931Z,19.25
2023-02-03T19:28:43.409Z,46.67
2023-02-03T19:30:46.110Z,32.57
2023-02-03T19:32:48.607Z,37.47
2023-02-03T19:34:51.091Z,43.58
2023-02-03T19:36:53.446Z,39.67
2023-02-03T19:38:56.407Z,40.50
2023-02-03T19:40:59.278Z,49.77
2023-02-03T19:43:02.296Z,72.53
2023-02-03T19:45:05.778Z,76.95
2023-02-03T19:47:08.272Z,58.70
2023-02-03T19:49:13.331Z,51.55
2023-02-03T19:51:15.922Z,51.73
2023-02-03T19:53:18.878Z,52.30
2023-02-03T19:55:21.396Z,37.88
2023-02-03T19:57:24.484Z,38.05
2023-02-03T19:59:27.010Z,38.67
2023-02-03T20:01:30.256Z,39.08
2023-02-03T20:03:32.814Z,30.98
2023-02-03T20:05:36.445Z,39.47
2023-02-03T20:07:38.867Z,33.45
2023-02-03T20:09:41.251Z,44.80
2023-02-03T20:11:43.721Z,56.37
2023-02-03T20:13:47.700Z,45.95
2023-02-03T20:15:50.338Z,53.17
2023-02-03T20:17:52.828Z,26.30
2023-02-03T20:19:55.289Z,22.75
2023-02-03T20:21:57.726Z,22.10
2023-02-03T20:24:00.144Z,27.77
2023-02-03T20:26:02.982Z,26.80
2023-02-03T20:28:05.600Z,23.83
2023-02-03T20:30:08.777Z,32.45
2023-02-03T20:32:11.705Z,38.93
2023-02-03T20:34:14.220Z,42.40
2023-02-03T20:36:16.720Z,61.28
2023-02-03T20:38:19.493Z,38.13
2023-02-03T20:40:23.789Z,84.60
2023-02-03T20:42:26.675Z,62.20
2023-02-03T20:44:29.109Z,50.63
2023-02-03T20:46:31.564Z,50.60
2023-02-03T20:48:34.243Z,62.65
2023-02-03T20:50:42.174Z,49.47
2023-02-03T20:52:54.122Z,56.10
2023-02-03T20:54:56.550Z,48.78
2023-02-03T20:56:58.997Z,51.75
2023-02-03T20:59:01.388Z,51.50
2023-02-03T21:01:09.722Z,44.63
2023-02-03T21:03:34.752Z,54.30
2023-02-03T21:05:39.604Z,63.88
2023-02-03T21:07:42.455Z,85.68
2023-02-03T21:09:45.061Z,67.55
2023-02-03T21:11:47.484Z,80.60
2023-02-03T21:13:50.196Z,75.63
2023-02-03T21:16:04.484Z,83.97
2023-02-03T21:18:25.617Z,26.75
2023-02-03T21:20:33.036Z,30.33
2023-02-03T21:22:35.648Z,38.08
2023-02-03T21:24:38.627Z,50.40
2023-02-03T21:26:41.503Z,49.13
2023-02-03T21:28:43.938Z,45.17
2023-02-03T21:30:46.379Z,34.20
2023-02-03T21:32:48.860Z,35.00
2023-02-03T21:34:51.759Z,44.30
2023-02-03T21:36:54.566Z,37.58
2023-02-03T21:38:59.903Z,35.67
2023-02-03T21:41:02.307Z,47.53
2023-02-03T21:43:04.748Z,47.15
2023-02-03T21:45:16.894Z,42.30
2023-02-03T21:47:19.390Z,44.65
2023-02-03T21:49:22.335Z,50.92
2023-02-03T21:51:30.229Z,71.30
2023-02-03T21:53:35.780Z,58.80
2023-02-03T21:55:41.444Z,55.33
2023-02-03T21:57:43.900Z,74.30
2023-02-03T21:59:49.815Z,70.82
2023-02-03T22:01:53.831Z,76.82
2023-02-03T22:03:58.931Z,85.05
2023-02-03T22:06:14.128Z,102.70
2023-02-03T22:08:21.046Z,80.47
2023-02-03T22:10:23.498Z,171.75
2023-02-03T22:12:25.892Z,133.63
2023-02-03T22:14:28.485Z,145.45
2023-02-03T22:16:31.177Z,134.63
2023-02-03T22:18:33.837Z,155.43
2023-02-03T22:20:36.602Z,156.05
2023-02-03T22:22:39.060Z,120.88
2023-02-03T22:24:41.483Z,115.22
2023-02-03T22:26:43.968Z,141.23
2023-02-03T22:28:46.676Z,136.20
2023-02-03T22:30:49.215Z,105.35
2023-02-03T22:32:51.984Z,87.75
2023-02-03T22:34:54.464Z,90.22
2023-02-03T22:36:56.944Z,79.63
2023-02-03T22:38:59.392Z,66.95
2023-02-03T22:41:01.884Z,48.10
2023-02-03T22:43:04.455Z,37.40
2023-02-03T22:45:07.727Z,33.88
2023-02-03T22:47:10.304Z,18.87
2023-02-03T22:49:12.691Z,19.55
2023-02-03T22:51:15.082Z,18.08
2023-02-03T22:53:17.613Z,16.02
2023-02-03T22:55:20.234Z,16.48
2023-02-03T22:57:22.629Z,12.00
2023-02-03T22:59:25.087Z,12.57
2023-02-03T23:01:27.530Z,10.95
2023-02-03T23:03:32.692Z,14.35
2023-02-03T23:05:35.340Z,12.02
2023-02-03T23:07:37.900Z,12.35
2023-02-03T23:09:40.661Z,10.63
2023-02-03T23:11:43.089Z,11.18
2023-02-03T23:13:45.509Z,11.48
2023-02-03T23:15:48.015Z,10.25
2023-02-03T23:17:50.545Z,11.05
2023-02-03T23:19:53.000Z,11.40
2023-02-03T23:21:55.432Z,10.52
2023-02-03T23:23:57.847Z,9.57
2023-02-03T23:26:00.441Z,11.18
2023-02-03T23:28:02.908Z,9.05
2023-02-03T23:30:06.997Z,14.35
2023-02-03T23:32:10.955Z,13.20
2023-02-03T23:34:31.748Z,17.05
2023-02-03T23:36:34.229Z,11.15
2023-02-03T23:38:36.610Z,10.18
2023-02-03T23:40:39.037Z,25.92
2023-02-03T23:42:41.511Z,23.20
2023-02-03T23:44:43.978Z,14.10
2023-02-03T23:46:46.484Z,15.02
2023-02-03T23:48:49.016Z,14.90
2023-02-03T23:50:51.764Z,11.70
2023-02-03T23:52:54.179Z,9.88
2023-02-03T23:54:56.573Z,8.60
2023-02-03T23:56:59.069Z,7.30
2023-02-03T23:59:01.438Z,7.13
